sensor_id;sensor_type;location;lat;lon;timestamp;P1;durP1;ratioP1;P2;durP2;ratioP2
5696;SDS011;2873;50.966;7.210;2023-07-24T00:00:40;2.37;;;2.17;;
5696;SDS011;2873;50.966;7.210;2023-07-24T00:03:06;2.38;;;2.17;;
5696;SDS011;2873;50.966;7.210;2023-07-24T00:05:31;2.20;;;2.10;;
5696;SDS011;2873;50.966;7.210;2023-07-24T00:07:57;3.17;;;2.30;;
5696;SDS011;2873;50.966;7.210;2023-07-24T00:10:22;2.35;;;2.15;;
5696;SDS011;2873;50.966;7.210;2023-07-24T00:12:48;2.50;;;2.30;;
5696;SDS011;2873;50.966;7.210;2023-07-24T00:15:14;2.27;;;2.07;;
5696;SDS011;2873;50.966;7.210;2023-07-24T00:17:39;3.20;;;2.70;;
5696;SDS011;2873;50.966;7.210;2023-07-24T00:20:05;2.40;;;2.30;;
5696;SDS011;2873;50.966;7.210;2023-07-24T00:22:31;2.80;;;2.25;;
5696;SDS011;2873;50.966;7.210;2023-07-24T00:24:57;3.05;;;2.78;;
5696;SDS011;2873;50.966;7.210;2023-07-24T00:27:22;2.97;;;2.23;;
5696;SDS011;2873;50.966;7.210;2023-07-24T00:29:48;2.53;;;2.30;;
5696;SDS011;2873;50.966;7.210;2023-07-24T00:32:13;2.67;;;2.30;;
5696;SDS011;2873;50.966;7.210;2023-07-24T00:34:39;2.60;;;2.40;;
5696;SDS011;2873;50.966;7.210;2023-07-24T00:37:05;8.38;;;2.40;;
5696;SDS011;2873;50.966;7.210;2023-07-24T00:39:32;4.78;;;2.30;;
5696;SDS011;2873;50.966;7.210;2023-07-24T00:41:57;2.30;;;2.10;;
5696;SDS011;2873;50.966;7.210;2023-07-24T00:44:23;2.30;;;2.10;;
5696;SDS011;2873;50.966;7.210;2023-07-24T00:46:48;2.80;;;2.30;;
5696;SDS011;2873;50.966;7.210;2023-07-24T00:49:14;2.70;;;2.40;;
5696;SDS011;2873;50.966;7.210;2023-07-24T00:51:40;2.90;;;2.70;;
5696;SDS011;2873;50.966;7.210;2023-07-24T00:54:06;2.77;;;2.50;;
5696;SDS011;2873;50.966;7.210;2023-07-24T00:56:31;2.20;;;2.00;;
5696;SDS011;2873;50.966;7.210;2023-07-24T00:58:58;2.50;;;2.40;;
5696;SDS011;2873;50.966;7.210;2023-07-24T01:01:26;3.50;;;2.20;;
5696;SDS011;2873;50.966;7.210;2023-07-24T01:03:53;2.80;;;2.50;;
5696;SDS011;2873;50.966;7.210;2023-07-24T01:06:20;4.93;;;2.28;;
5696;SDS011;2873;50.966;7.210;2023-07-24T01:08:45;4.60;;;2.37;;
5696;SDS011;2873;50.966;7.210;2023-07-24T01:11:33;2.50;;;2.30;;
5696;SDS011;2873;50.966;7.210;2023-07-24T01:14:04;5.00;;;2.78;;
5696;SDS011;2873;50.966;7.210;2023-07-24T01:16:38;2.20;;;2.00;;
5696;SDS011;2873;50.966;7.210;2023-07-24T01:27:51;2.17;;;1.97;;
5696;SDS011;2873;50.966;7.210;2023-07-24T01:30:18;4.50;;;2.50;;
5696;SDS011;2873;50.966;7.210;2023-07-24T01:32:44;2.60;;;2.40;;
5696;SDS011;2873;50.966;7.210;2023-07-24T01:35:10;2.20;;;2.10;;
5696;SDS011;2873;50.966;7.210;2023-07-24T01:37:36;2.40;;;2.20;;
5696;SDS011;2873;50.966;7.210;2023-07-24T01:40:05;2.83;;;2.63;;
5696;SDS011;2873;50.966;7.210;2023-07-24T01:42:33;4.22;;;2.30;;
5696;SDS011;2873;50.966;7.210;2023-07-24T01:44:59;3.20;;;2.50;;
5696;SDS011;2873;50.966;7.210;2023-07-24T01:47:24;2.88;;;2.60;;
5696;SDS011;2873;50.966;7.210;2023-07-24T01:49:50;2.83;;;2.63;;
5696;SDS011;2873;50.966;7.210;2023-07-24T01:52:16;5.87;;;2.50;;
5696;SDS011;2873;50.966;7.210;2023-07-24T01:54:42;2.90;;;2.60;;
5696;SDS011;2873;50.966;7.210;2023-07-24T01:57:07;5.30;;;2.80;;
5696;SDS011;2873;50.966;7.210;2023-07-24T01:59:33;2.53;;;2.33;;
5696;SDS011;2873;50.966;7.210;2023-07-24T02:01:58;3.57;;;2.50;;
5696;SDS011;2873;50.966;7.210;2023-07-24T02:04:24;2.75;;;2.53;;
5696;SDS011;2873;50.966;7.210;2023-07-24T02:06:49;4.97;;;2.70;;
5696;SDS011;2873;50.966;7.210;2023-07-24T02:09:17;4.23;;;2.70;;
5696;SDS011;2873;50.966;7.210;2023-07-24T02:11:43;3.47;;;2.53;;
5696;SDS011;2873;50.966;7.210;2023-07-24T02:14:08;4.47;;;2.70;;
5696;SDS011;2873;50.966;7.210;2023-07-24T02:16:35;3.08;;;2.50;;
5696;SDS011;2873;50.966;7.210;2023-07-24T02:19:01;2.50;;;2.30;;
5696;SDS011;2873;50.966;7.210;2023-07-24T02:21:26;7.17;;;2.47;;
5696;SDS011;2873;50.966;7.210;2023-07-24T02:23:52;9.32;;;2.80;;
5696;SDS011;2873;50.966;7.210;2023-07-24T02:26:17;3.20;;;2.47;;
5696;SDS011;2873;50.966;7.210;2023-07-24T02:28:43;3.70;;;2.70;;
5696;SDS011;2873;50.966;7.210;2023-07-24T02:31:08;2.70;;;2.50;;
5696;SDS011;2873;50.966;7.210;2023-07-24T02:33:34;2.67;;;2.47;;
5696;SDS011;2873;50.966;7.210;2023-07-24T02:36:00;4.70;;;2.73;;
5696;SDS011;2873;50.966;7.210;2023-07-24T02:38:26;5.88;;;2.75;;
5696;SDS011;2873;50.966;7.210;2023-07-24T02:40:52;2.90;;;2.60;;
5696;SDS011;2873;50.966;7.210;2023-07-24T02:43:18;3.13;;;2.63;;
5696;SDS011;2873;50.966;7.210;2023-07-24T02:45:43;5.53;;;2.70;;
5696;SDS011;2873;50.966;7.210;2023-07-24T02:48:09;3.03;;;2.50;;
5696;SDS011;2873;50.966;7.210;2023-07-24T02:50:34;2.57;;;2.37;;
5696;SDS011;2873;50.966;7.210;2023-07-24T02:53:00;2.88;;;2.50;;
5696;SDS011;2873;50.966;7.210;2023-07-24T02:55:26;3.45;;;2.42;;
5696;SDS011;2873;50.966;7.210;2023-07-24T02:57:51;3.60;;;2.70;;
5696;SDS011;2873;50.966;7.210;2023-07-24T03:00:17;2.92;;;2.63;;
5696;SDS011;2873;50.966;7.210;2023-07-24T03:02:43;7.73;;;2.90;;
5696;SDS011;2873;50.966;7.210;2023-07-24T03:05:09;3.80;;;3.00;;
5696;SDS011;2873;50.966;7.210;2023-07-24T03:07:34;3.95;;;2.50;;
5696;SDS011;2873;50.966;7.210;2023-07-24T03:10:00;4.43;;;2.80;;
5696;SDS011;2873;50.966;7.210;2023-07-24T03:12:25;3.20;;;2.50;;
5696;SDS011;2873;50.966;7.210;2023-07-24T03:14:51;6.10;;;2.67;;
5696;SDS011;2873;50.966;7.210;2023-07-24T03:17:16;4.20;;;2.78;;
5696;SDS011;2873;50.966;7.210;2023-07-24T03:19:42;5.88;;;3.05;;
5696;SDS011;2873;50.966;7.210;2023-07-24T03:22:07;4.80;;;2.70;;
5696;SDS011;2873;50.966;7.210;2023-07-24T03:24:33;6.60;;;3.00;;
5696;SDS011;2873;50.966;7.210;2023-07-24T03:26:59;3.30;;;2.60;;
5696;SDS011;2873;50.966;7.210;2023-07-24T03:29:25;5.40;;;2.83;;
5696;SDS011;2873;50.966;7.210;2023-07-24T03:31:52;5.90;;;2.80;;
5696;SDS011;2873;50.966;7.210;2023-07-24T03:34:17;3.45;;;2.70;;
5696;SDS011;2873;50.966;7.210;2023-07-24T03:36:43;8.37;;;3.20;;
5696;SDS011;2873;50.966;7.210;2023-07-24T03:39:09;2.80;;;2.60;;
5696;SDS011;2873;50.966;7.210;2023-07-24T03:41:36;5.57;;;2.90;;
5696;SDS011;2873;50.966;7.210;2023-07-24T03:44:02;3.20;;;2.90;;
5696;SDS011;2873;50.966;7.210;2023-07-24T03:46:27;3.33;;;2.50;;
5696;SDS011;2873;50.966;7.210;2023-07-24T03:48:53;3.17;;;2.80;;
5696;SDS011;2873;50.966;7.210;2023-07-24T03:51:19;3.95;;;2.70;;
5696;SDS011;2873;50.966;7.210;2023-07-24T03:53:44;3.80;;;2.73;;
5696;SDS011;2873;50.966;7.210;2023-07-24T03:56:11;3.33;;;2.60;;
5696;SDS011;2873;50.966;7.210;2023-07-24T03:58:37;4.50;;;2.88;;
5696;SDS011;2873;50.966;7.210;2023-07-24T04:01:04;3.35;;;3.05;;
5696;SDS011;2873;50.966;7.210;2023-07-24T04:03:30;4.13;;;3.20;;
5696;SDS011;2873;50.966;7.210;2023-07-24T04:05:55;2.92;;;2.70;;
5696;SDS011;2873;50.966;7.210;2023-07-24T04:08:21;4.23;;;2.83;;
5696;SDS011;2873;50.966;7.210;2023-07-24T04:10:47;4.25;;;3.10;;
5696;SDS011;2873;50.966;7.210;2023-07-24T04:13:12;5.23;;;3.20;;
5696;SDS011;2873;50.966;7.210;2023-07-24T04:15:38;5.27;;;2.93;;
5696;SDS011;2873;50.966;7.210;2023-07-24T04:18:04;4.03;;;3.03;;
5696;SDS011;2873;50.966;7.210;2023-07-24T04:20:30;3.97;;;2.90;;
5696;SDS011;2873;50.966;7.210;2023-07-24T04:22:55;4.15;;;2.85;;
5696;SDS011;2873;50.966;7.210;2023-07-24T04:25:21;2.88;;;2.67;;
5696;SDS011;2873;50.966;7.210;2023-07-24T04:27:47;7.70;;;3.50;;
5696;SDS011;2873;50.966;7.210;2023-07-24T04:30:13;4.30;;;3.25;;
5696;SDS011;2873;50.966;7.210;2023-07-24T04:32:38;4.47;;;2.85;;
5696;SDS011;2873;50.966;7.210;2023-07-24T04:35:04;4.50;;;3.30;;
5696;SDS011;2873;50.966;7.210;2023-07-24T04:37:30;7.82;;;3.00;;
5696;SDS011;2873;50.966;7.210;2023-07-24T04:39:55;3.83;;;3.43;;
5696;SDS011;2873;50.966;7.210;2023-07-24T04:42:21;4.90;;;2.77;;
5696;SDS011;2873;50.966;7.210;2023-07-24T04:44:47;3.70;;;2.92;;
5696;SDS011;2873;50.966;7.210;2023-07-24T04:47:12;2.80;;;2.60;;
5696;SDS011;2873;50.966;7.210;2023-07-24T04:49:38;4.70;;;3.10;;
5696;SDS011;2873;50.966;7.210;2023-07-24T04:52:03;4.33;;;3.10;;
5696;SDS011;2873;50.966;7.210;2023-07-24T04:54:29;4.90;;;3.55;;
5696;SDS011;2873;50.966;7.210;2023-07-24T04:56:55;3.13;;;2.90;;
5696;SDS011;2873;50.966;7.210;2023-07-24T04:59:20;3.33;;;2.90;;
5696;SDS011;2873;50.966;7.210;2023-07-24T05:01:46;3.97;;;3.20;;
5696;SDS011;2873;50.966;7.210;2023-07-24T05:04:11;5.88;;;3.25;;
5696;SDS011;2873;50.966;7.210;2023-07-24T05:06:37;8.07;;;3.00;;
5696;SDS011;2873;50.966;7.210;2023-07-24T05:09:03;3.00;;;2.80;;
5696;SDS011;2873;50.966;7.210;2023-07-24T05:11:29;4.10;;;3.03;;
5696;SDS011;2873;50.966;7.210;2023-07-24T05:13:54;5.90;;;3.40;;
5696;SDS011;2873;50.966;7.210;2023-07-24T05:16:20;4.28;;;3.05;;
5696;SDS011;2873;50.966;7.210;2023-07-24T05:18:46;6.38;;;3.08;;
5696;SDS011;2873;50.966;7.210;2023-07-24T05:21:11;6.90;;;3.20;;
5696;SDS011;2873;50.966;7.210;2023-07-24T05:23:37;3.35;;;3.05;;
5696;SDS011;2873;50.966;7.210;2023-07-24T05:26:03;5.75;;;3.00;;
5696;SDS011;2873;50.966;7.210;2023-07-24T05:28:29;4.65;;;3.40;;
5696;SDS011;2873;50.966;7.210;2023-07-24T05:30:56;3.25;;;2.63;;
5696;SDS011;2873;50.966;7.210;2023-07-24T05:33:25;2.88;;;2.67;;
5696;SDS011;2873;50.966;7.210;2023-07-24T05:35:50;5.40;;;3.10;;
5696;SDS011;2873;50.966;7.210;2023-07-24T05:38:16;4.73;;;2.90;;
5696;SDS011;2873;50.966;7.210;2023-07-24T05:40:41;5.32;;;3.15;;
5696;SDS011;2873;50.966;7.210;2023-07-24T05:43:07;4.57;;;3.00;;
5696;SDS011;2873;50.966;7.210;2023-07-24T05:45:32;4.43;;;2.80;;
5696;SDS011;2873;50.966;7.210;2023-07-24T05:47:58;3.50;;;2.97;;
5696;SDS011;2873;50.966;7.210;2023-07-24T05:50:23;3.17;;;2.87;;
5696;SDS011;2873;50.966;7.210;2023-07-24T05:52:49;4.38;;;2.92;;
5696;SDS011;2873;50.966;7.210;2023-07-24T05:55:15;5.97;;;3.20;;
5696;SDS011;2873;50.966;7.210;2023-07-24T05:57:40;4.80;;;3.20;;
5696;SDS011;2873;50.966;7.210;2023-07-24T06:00:06;4.20;;;3.20;;
5696;SDS011;2873;50.966;7.210;2023-07-24T06:02:32;3.60;;;3.10;;
5696;SDS011;2873;50.966;7.210;2023-07-24T06:04:58;3.77;;;3.23;;
5696;SDS011;2873;50.966;7.210;2023-07-24T06:07:23;5.97;;;3.10;;
5696;SDS011;2873;50.966;7.210;2023-07-24T06:09:49;5.07;;;3.10;;
5696;SDS011;2873;50.966;7.210;2023-07-24T06:12:15;6.47;;;3.80;;
5696;SDS011;2873;50.966;7.210;2023-07-24T06:14:40;3.50;;;3.20;;
5696;SDS011;2873;50.966;7.210;2023-07-24T06:17:06;5.50;;;3.20;;
5696;SDS011;2873;50.966;7.210;2023-07-24T06:19:32;5.00;;;2.90;;
5696;SDS011;2873;50.966;7.210;2023-07-24T06:21:57;4.65;;;3.30;;
5696;SDS011;2873;50.966;7.210;2023-07-24T06:24:23;6.97;;;3.50;;
5696;SDS011;2873;50.966;7.210;2023-07-24T06:26:49;4.83;;;3.40;;
5696;SDS011;2873;50.966;7.210;2023-07-24T06:29:15;4.45;;;3.20;;
5696;SDS011;2873;50.966;7.210;2023-07-24T06:31:41;6.57;;;3.70;;
5696;SDS011;2873;50.966;7.210;2023-07-24T06:34:06;4.23;;;3.30;;
5696;SDS011;2873;50.966;7.210;2023-07-24T06:36:32;10.30;;;3.60;;
5696;SDS011;2873;50.966;7.210;2023-07-24T06:38:58;4.97;;;3.20;;
5696;SDS011;2873;50.966;7.210;2023-07-24T06:41:23;6.03;;;3.53;;
5696;SDS011;2873;50.966;7.210;2023-07-24T06:43:50;5.13;;;2.95;;
5696;SDS011;2873;50.966;7.210;2023-07-24T06:46:16;6.22;;;3.55;;
5696;SDS011;2873;50.966;7.210;2023-07-24T06:48:41;8.03;;;3.30;;
5696;SDS011;2873;50.966;7.210;2023-07-24T06:51:07;5.28;;;3.78;;
5696;SDS011;2873;50.966;7.210;2023-07-24T06:53:33;4.35;;;3.28;;
5696;SDS011;2873;50.966;7.210;2023-07-24T06:55:58;3.93;;;3.10;;
5696;SDS011;2873;50.966;7.210;2023-07-24T06:58:24;6.60;;;3.30;;
5696;SDS011;2873;50.966;7.210;2023-07-24T07:00:49;5.37;;;3.53;;
5696;SDS011;2873;50.966;7.210;2023-07-24T07:03:15;5.43;;;3.95;;
5696;SDS011;2873;50.966;7.210;2023-07-24T07:05:40;5.13;;;3.45;;
5696;SDS011;2873;50.966;7.210;2023-07-24T07:08:08;4.63;;;3.35;;
5696;SDS011;2873;50.966;7.210;2023-07-24T07:10:34;4.57;;;3.33;;
5696;SDS011;2873;50.966;7.210;2023-07-24T07:12:59;4.57;;;2.90;;
5696;SDS011;2873;50.966;7.210;2023-07-24T07:15:25;4.70;;;3.20;;
5696;SDS011;2873;50.966;7.210;2023-07-24T07:17:50;3.72;;;3.10;;
5696;SDS011;2873;50.966;7.210;2023-07-24T07:20:16;4.05;;;3.22;;
5696;SDS011;2873;50.966;7.210;2023-07-24T07:22:41;3.63;;;3.10;;
5696;SDS011;2873;50.966;7.210;2023-07-24T07:25:07;4.40;;;2.90;;
5696;SDS011;2873;50.966;7.210;2023-07-24T07:27:33;5.60;;;3.50;;
5696;SDS011;2873;50.966;7.210;2023-07-24T07:29:58;3.97;;;3.13;;
5696;SDS011;2873;50.966;7.210;2023-07-24T07:32:24;3.73;;;2.60;;
5696;SDS011;2873;50.966;7.210;2023-07-24T07:34:49;5.00;;;3.40;;
5696;SDS011;2873;50.966;7.210;2023-07-24T07:37:15;4.85;;;3.50;;
5696;SDS011;2873;50.966;7.210;2023-07-24T07:39:41;4.67;;;3.10;;
5696;SDS011;2873;50.966;7.210;2023-07-24T07:42:06;3.83;;;3.10;;
5696;SDS011;2873;50.966;7.210;2023-07-24T07:44:32;6.95;;;3.17;;
5696;SDS011;2873;50.966;7.210;2023-07-24T07:46:57;3.40;;;3.10;;
5696;SDS011;2873;50.966;7.210;2023-07-24T07:49:23;4.78;;;3.20;;
5696;SDS011;2873;50.966;7.210;2023-07-24T07:51:48;4.33;;;3.40;;
5696;SDS011;2873;50.966;7.210;2023-07-24T07:54:14;4.97;;;3.20;;
5696;SDS011;2873;50.966;7.210;2023-07-24T07:56:40;3.63;;;3.00;;
5696;SDS011;2873;50.966;7.210;2023-07-24T07:59:06;3.25;;;2.95;;
5696;SDS011;2873;50.966;7.210;2023-07-24T08:01:32;3.17;;;2.87;;
5696;SDS011;2873;50.966;7.210;2023-07-24T08:03:58;3.42;;;2.97;;
5696;SDS011;2873;50.966;7.210;2023-07-24T08:06:23;4.50;;;2.88;;
5696;SDS011;2873;50.966;7.210;2023-07-24T08:08:49;4.10;;;3.43;;
5696;SDS011;2873;50.966;7.210;2023-07-24T08:11:15;4.10;;;3.00;;
5696;SDS011;2873;50.966;7.210;2023-07-24T08:13:41;5.27;;;3.10;;
5696;SDS011;2873;50.966;7.210;2023-07-24T08:16:13;4.00;;;3.20;;
5696;SDS011;2873;50.966;7.210;2023-07-24T08:18:48;4.20;;;3.22;;
5696;SDS011;2873;50.966;7.210;2023-07-24T08:21:15;4.78;;;3.10;;
5696;SDS011;2873;50.966;7.210;2023-07-24T08:23:40;4.47;;;3.37;;
5696;SDS011;2873;50.966;7.210;2023-07-24T08:26:07;5.57;;;2.97;;
5696;SDS011;2873;50.966;7.210;2023-07-24T08:28:32;4.80;;;3.30;;
5696;SDS011;2873;50.966;7.210;2023-07-24T08:31:00;3.78;;;2.88;;
5696;SDS011;2873;50.966;7.210;2023-07-24T08:33:29;4.13;;;3.13;;
5696;SDS011;2873;50.966;7.210;2023-07-24T08:35:59;7.00;;;3.30;;
5696;SDS011;2873;50.966;7.210;2023-07-24T08:38:27;4.23;;;3.03;;
5696;SDS011;2873;50.966;7.210;2023-07-24T08:41:02;4.78;;;3.20;;
5696;SDS011;2873;50.966;7.210;2023-07-24T08:43:32;3.70;;;3.10;;
5696;SDS011;2873;50.966;7.210;2023-07-24T08:46:00;6.75;;;3.00;;
5696;SDS011;2873;50.966;7.210;2023-07-24T08:48:30;3.55;;;3.10;;
5696;SDS011;2873;50.966;7.210;2023-07-24T08:51:04;5.47;;;3.20;;
5696;SDS011;2873;50.966;7.210;2023-07-24T08:53:38;3.30;;;3.00;;
5696;SDS011;2873;50.966;7.210;2023-07-24T08:56:08;4.38;;;2.88;;
5696;SDS011;2873;50.966;7.210;2023-07-24T08:58:35;7.23;;;3.40;;
5696;SDS011;2873;50.966;7.210;2023-07-24T09:01:02;4.33;;;3.27;;
5696;SDS011;2873;50.966;7.210;2023-07-24T09:03:28;3.65;;;3.35;;
5696;SDS011;2873;50.966;7.210;2023-07-24T09:05:55;4.50;;;3.13;;
5696;SDS011;2873;50.966;7.210;2023-07-24T09:08:29;5.22;;;2.85;;
5696;SDS011;2873;50.966;7.210;2023-07-24T09:10:55;3.20;;;2.90;;
5696;SDS011;2873;50.966;7.210;2023-07-24T09:13:21;3.90;;;2.90;;
5696;SDS011;2873;50.966;7.210;2023-07-24T09:15:46;7.40;;;3.20;;
5696;SDS011;2873;50.966;7.210;2023-07-24T09:18:12;5.70;;;2.85;;
5696;SDS011;2873;50.966;7.210;2023-07-24T09:20:41;3.20;;;2.90;;
5696;SDS011;2873;50.966;7.210;2023-07-24T09:23:08;5.32;;;3.20;;
5696;SDS011;2873;50.966;7.210;2023-07-24T09:25:35;4.13;;;2.90;;
5696;SDS011;2873;50.966;7.210;2023-07-24T09:28:12;4.20;;;2.90;;
5696;SDS011;2873;50.966;7.210;2023-07-24T09:30:39;4.22;;;3.00;;
5696;SDS011;2873;50.966;7.210;2023-07-24T09:33:06;3.42;;;3.13;;
5696;SDS011;2873;50.966;7.210;2023-07-24T09:35:31;5.60;;;3.00;;
5696;SDS011;2873;50.966;7.210;2023-07-24T09:38:01;3.22;;;2.92;;
5696;SDS011;2873;50.966;7.210;2023-07-24T09:40:44;2.88;;;2.63;;
5696;SDS011;2873;50.966;7.210;2023-07-24T09:43:20;5.45;;;3.17;;
5696;SDS011;2873;50.966;7.210;2023-07-24T09:45:47;4.20;;;3.10;;
5696;SDS011;2873;50.966;7.210;2023-07-24T09:48:15;3.30;;;2.88;;
5696;SDS011;2873;50.966;7.210;2023-07-24T09:50:42;3.25;;;2.80;;
5696;SDS011;2873;50.966;7.210;2023-07-24T09:53:32;3.83;;;3.03;;
5696;SDS011;2873;50.966;7.210;2023-07-24T09:56:00;4.82;;;3.10;;
5696;SDS011;2873;50.966;7.210;2023-07-24T09:58:26;4.40;;;2.90;;
5696;SDS011;2873;50.966;7.210;2023-07-24T10:00:53;5.18;;;2.80;;
5696;SDS011;2873;50.966;7.210;2023-07-24T10:03:20;7.38;;;2.83;;
5696;SDS011;2873;50.966;7.210;2023-07-24T10:05:47;3.20;;;2.60;;
5696;SDS011;2873;50.966;7.210;2023-07-24T10:08:16;3.70;;;2.60;;
5696;SDS011;2873;50.966;7.210;2023-07-24T10:10:43;4.30;;;2.10;;
5696;SDS011;2873;50.966;7.210;2023-07-24T10:13:10;2.50;;;2.30;;
5696;SDS011;2873;50.966;7.210;2023-07-24T10:15:39;3.85;;;2.50;;
5696;SDS011;2873;50.966;7.210;2023-07-24T10:18:07;2.90;;;2.40;;
5696;SDS011;2873;50.966;7.210;2023-07-24T10:20:33;2.50;;;2.30;;
5696;SDS011;2873;50.966;7.210;2023-07-24T10:23:03;3.10;;;2.20;;
5696;SDS011;2873;50.966;7.210;2023-07-24T10:25:33;3.33;;;2.33;;
5696;SDS011;2873;50.966;7.210;2023-07-24T10:28:06;2.55;;;2.30;;
5696;SDS011;2873;50.966;7.210;2023-07-24T10:30:36;2.53;;;2.33;;
5696;SDS011;2873;50.966;7.210;2023-07-24T10:33:06;4.50;;;2.55;;
5696;SDS011;2873;50.966;7.210;2023-07-24T10:35:42;2.60;;;2.40;;
5696;SDS011;2873;50.966;7.210;2023-07-24T10:38:14;2.90;;;2.60;;
5696;SDS011;2873;50.966;7.210;2023-07-24T10:40:41;3.30;;;2.60;;
5696;SDS011;2873;50.966;7.210;2023-07-24T10:43:08;3.60;;;2.78;;
5696;SDS011;2873;50.966;7.210;2023-07-24T10:48:06;2.50;;;2.30;;
5696;SDS011;2873;50.966;7.210;2023-07-24T10:50:43;2.63;;;2.40;;
5696;SDS011;2873;50.966;7.210;2023-07-24T10:53:10;4.07;;;2.60;;
5696;SDS011;2873;50.966;7.210;2023-07-24T10:55:38;2.50;;;2.00;;
5696;SDS011;2873;50.966;7.210;2023-07-24T10:58:05;3.10;;;2.50;;
5696;SDS011;2873;50.966;7.210;2023-07-24T11:00:31;3.05;;;2.75;;
5696;SDS011;2873;50.966;7.210;2023-07-24T11:02:57;3.60;;;2.30;;
5696;SDS011;2873;50.966;7.210;2023-07-24T11:05:24;4.40;;;2.70;;
5696;SDS011;2873;50.966;7.210;2023-07-24T11:07:50;3.88;;;2.50;;
5696;SDS011;2873;50.966;7.210;2023-07-24T11:10:19;2.70;;;2.30;;
5696;SDS011;2873;50.966;7.210;2023-07-24T11:12:46;2.55;;;2.35;;
5696;SDS011;2873;50.966;7.210;2023-07-24T11:15:12;3.10;;;2.80;;
5696;SDS011;2873;50.966;7.210;2023-07-24T11:17:39;2.70;;;2.50;;
5696;SDS011;2873;50.966;7.210;2023-07-24T11:20:10;2.88;;;2.50;;
5696;SDS011;2873;50.966;7.210;2023-07-24T11:22:39;2.58;;;2.38;;
5696;SDS011;2873;50.966;7.210;2023-07-24T11:25:06;2.80;;;2.60;;
5696;SDS011;2873;50.966;7.210;2023-07-24T11:27:32;2.80;;;2.60;;
5696;SDS011;2873;50.966;7.210;2023-07-24T11:29:58;4.15;;;2.47;;
5696;SDS011;2873;50.966;7.210;2023-07-24T11:32:24;2.97;;;2.63;;
5696;SDS011;2873;50.966;7.210;2023-07-24T11:34:50;2.90;;;2.30;;
5696;SDS011;2873;50.966;7.210;2023-07-24T11:37:17;3.20;;;2.30;;
5696;SDS011;2873;50.966;7.210;2023-07-24T11:39:54;2.33;;;2.13;;
5696;SDS011;2873;50.966;7.210;2023-07-24T11:42:26;3.63;;;2.60;;
5696;SDS011;2873;50.966;7.210;2023-07-24T11:44:52;4.55;;;2.50;;
5696;SDS011;2873;50.966;7.210;2023-07-24T11:47:19;3.55;;;2.10;;
5696;SDS011;2873;50.966;7.210;2023-07-24T11:49:55;2.58;;;2.38;;
5696;SDS011;2873;50.966;7.210;2023-07-24T11:52:21;6.18;;;2.53;;
5696;SDS011;2873;50.966;7.210;2023-07-24T11:54:55;3.03;;;2.60;;
5696;SDS011;2873;50.966;7.210;2023-07-24T11:57:26;5.60;;;2.50;;
5696;SDS011;2873;50.966;7.210;2023-07-24T11:59:53;3.40;;;2.50;;
5696;SDS011;2873;50.966;7.210;2023-07-24T12:02:19;5.30;;;2.88;;
5696;SDS011;2873;50.966;7.210;2023-07-24T12:04:45;2.53;;;2.17;;
5696;SDS011;2873;50.966;7.210;2023-07-24T12:07:10;1.60;;;1.50;;
5696;SDS011;2873;50.966;7.210;2023-07-24T12:09:36;1.33;;;1.23;;
5696;SDS011;2873;50.966;7.210;2023-07-24T12:12:03;1.38;;;1.00;;
5696;SDS011;2873;50.966;7.210;2023-07-24T12:14:30;2.42;;;1.10;;
5696;SDS011;2873;50.966;7.210;2023-07-24T12:17:02;3.60;;;1.20;;
5696;SDS011;2873;50.966;7.210;2023-07-24T12:19:28;4.75;;;1.40;;
5696;SDS011;2873;50.966;7.210;2023-07-24T12:21:54;3.97;;;1.77;;
5696;SDS011;2873;50.966;7.210;2023-07-24T12:24:19;4.70;;;2.00;;
5696;SDS011;2873;50.966;7.210;2023-07-24T12:26:45;4.35;;;2.40;;
5696;SDS011;2873;50.966;7.210;2023-07-24T12:29:10;3.38;;;2.10;;
5696;SDS011;2873;50.966;7.210;2023-07-24T12:31:36;3.30;;;1.90;;
5696;SDS011;2873;50.966;7.210;2023-07-24T12:34:01;2.30;;;1.80;;
5696;SDS011;2873;50.966;7.210;2023-07-24T12:36:27;2.90;;;2.40;;
5696;SDS011;2873;50.966;7.210;2023-07-24T12:38:53;3.80;;;1.98;;
5696;SDS011;2873;50.966;7.210;2023-07-24T12:41:19;2.60;;;1.80;;
5696;SDS011;2873;50.966;7.210;2023-07-24T12:43:44;2.30;;;1.50;;
5696;SDS011;2873;50.966;7.210;2023-07-24T12:46:10;3.65;;;1.92;;
5696;SDS011;2873;50.966;7.210;2023-07-24T12:48:35;3.17;;;1.80;;
5696;SDS011;2873;50.966;7.210;2023-07-24T12:51:01;3.50;;;2.50;;
5696;SDS011;2873;50.966;7.210;2023-07-24T12:53:28;3.50;;;1.80;;
5696;SDS011;2873;50.966;7.210;2023-07-24T12:55:53;2.13;;;1.50;;
5696;SDS011;2873;50.966;7.210;2023-07-24T12:58:19;2.33;;;1.70;;
5696;SDS011;2873;50.966;7.210;2023-07-24T13:00:44;4.23;;;1.70;;
5696;SDS011;2873;50.966;7.210;2023-07-24T13:03:10;3.00;;;1.70;;
5696;SDS011;2873;50.966;7.210;2023-07-24T13:05:36;2.20;;;1.30;;
5696;SDS011;2873;50.966;7.210;2023-07-24T13:08:03;6.32;;;1.80;;
5696;SDS011;2873;50.966;7.210;2023-07-24T13:10:28;2.73;;;1.90;;
5696;SDS011;2873;50.966;7.210;2023-07-24T13:12:54;1.70;;;1.60;;
5696;SDS011;2873;50.966;7.210;2023-07-24T13:15:19;1.88;;;1.40;;
5696;SDS011;2873;50.966;7.210;2023-07-24T13:17:45;2.50;;;1.40;;
5696;SDS011;2873;50.966;7.210;2023-07-24T13:20:13;1.90;;;1.70;;
5696;SDS011;2873;50.966;7.210;2023-07-24T13:22:38;2.60;;;1.50;;
5696;SDS011;2873;50.966;7.210;2023-07-24T13:25:04;1.70;;;1.60;;
5696;SDS011;2873;50.966;7.210;2023-07-24T13:27:29;3.90;;;1.67;;
5696;SDS011;2873;50.966;7.210;2023-07-24T13:29:55;2.13;;;1.90;;
5696;SDS011;2873;50.966;7.210;2023-07-24T13:32:21;2.10;;;1.70;;
5696;SDS011;2873;50.966;7.210;2023-07-24T13:34:46;3.00;;;1.47;;
5696;SDS011;2873;50.966;7.210;2023-07-24T13:37:12;2.10;;;1.80;;
5696;SDS011;2873;50.966;7.210;2023-07-24T13:39:38;3.78;;;1.60;;
5696;SDS011;2873;50.966;7.210;2023-07-24T13:42:04;3.75;;;2.00;;
5696;SDS011;2873;50.966;7.210;2023-07-24T13:44:29;1.70;;;1.60;;
5696;SDS011;2873;50.966;7.210;2023-07-24T13:46:55;3.07;;;1.93;;
5696;SDS011;2873;50.966;7.210;2023-07-24T13:49:21;4.60;;;2.00;;
5696;SDS011;2873;50.966;7.210;2023-07-24T13:51:46;2.10;;;1.90;;
5696;SDS011;2873;50.966;7.210;2023-07-24T13:54:12;2.40;;;1.40;;
5696;SDS011;2873;50.966;7.210;2023-07-24T13:56:37;3.20;;;1.47;;
5696;SDS011;2873;50.966;7.210;2023-07-24T13:59:03;1.50;;;1.40;;
5696;SDS011;2873;50.966;7.210;2023-07-24T14:01:29;1.50;;;1.20;;
5696;SDS011;2873;50.966;7.210;2023-07-24T14:03:54;1.38;;;1.27;;
5696;SDS011;2873;50.966;7.210;2023-07-24T14:06:20;1.40;;;1.30;;
5696;SDS011;2873;50.966;7.210;2023-07-24T14:08:45;1.90;;;1.50;;
5696;SDS011;2873;50.966;7.210;2023-07-24T14:11:11;1.60;;;1.50;;
5696;SDS011;2873;50.966;7.210;2023-07-24T14:13:36;1.60;;;1.50;;
5696;SDS011;2873;50.966;7.210;2023-07-24T14:16:02;1.97;;;1.60;;
5696;SDS011;2873;50.966;7.210;2023-07-24T14:18:28;1.77;;;1.67;;
5696;SDS011;2873;50.966;7.210;2023-07-24T14:20:53;1.95;;;1.75;;
5696;SDS011;2873;50.966;7.210;2023-07-24T14:23:21;2.55;;;1.75;;
5696;SDS011;2873;50.966;7.210;2023-07-24T14:25:47;2.00;;;1.80;;
5696;SDS011;2873;50.966;7.210;2023-07-24T14:28:12;3.30;;;1.90;;
5696;SDS011;2873;50.966;7.210;2023-07-24T14:30:38;1.60;;;1.50;;
5696;SDS011;2873;50.966;7.210;2023-07-24T14:33:04;3.60;;;1.67;;
5696;SDS011;2873;50.966;7.210;2023-07-24T14:35:29;1.60;;;1.50;;
5696;SDS011;2873;50.966;7.210;2023-07-24T14:37:55;3.30;;;1.70;;
5696;SDS011;2873;50.966;7.210;2023-07-24T14:40:20;2.13;;;1.77;;
5696;SDS011;2873;50.966;7.210;2023-07-24T14:42:46;1.70;;;1.60;;
5696;SDS011;2873;50.966;7.210;2023-07-24T14:45:11;1.40;;;1.40;;
5696;SDS011;2873;50.966;7.210;2023-07-24T14:47:37;5.30;;;1.80;;
5696;SDS011;2873;50.966;7.210;2023-07-24T14:50:02;4.80;;;1.70;;
5696;SDS011;2873;50.966;7.210;2023-07-24T14:52:28;3.45;;;2.00;;
5696;SDS011;2873;50.966;7.210;2023-07-24T14:54:54;2.25;;;2.00;;
5696;SDS011;2873;50.966;7.210;2023-07-24T14:57:19;3.50;;;2.50;;
5696;SDS011;2873;50.966;7.210;2023-07-24T14:59:45;2.00;;;1.80;;
5696;SDS011;2873;50.966;7.210;2023-07-24T15:02:10;3.87;;;1.80;;
5696;SDS011;2873;50.966;7.210;2023-07-24T15:04:36;2.23;;;2.13;;
5696;SDS011;2873;50.966;7.210;2023-07-24T15:07:02;2.83;;;2.53;;
5696;SDS011;2873;50.966;7.210;2023-07-24T15:09:27;2.33;;;1.98;;
5696;SDS011;2873;50.966;7.210;2023-07-24T15:11:53;3.22;;;2.38;;
5696;SDS011;2873;50.966;7.210;2023-07-24T15:14:21;5.87;;;2.47;;
5696;SDS011;2873;50.966;7.210;2023-07-24T15:16:46;3.50;;;2.40;;
5696;SDS011;2873;50.966;7.210;2023-07-24T15:19:12;3.80;;;2.00;;
5696;SDS011;2873;50.966;7.210;2023-07-24T15:21:37;2.40;;;2.20;;